createdAt,value
2022-09-01T00:01:44.306Z,82.90
2022-09-01T00:04:15.185Z,83.10
2022-09-01T00:06:43.508Z,83.50
2022-09-01T00:09:13.595Z,83.40
2022-09-01T00:11:43.157Z,83.40
2022-09-01T00:14:29.978Z,83.40
2022-09-01T00:17:03.758Z,83.50
2022-09-01T00:19:30.752Z,83.60
2022-09-01T00:21:57.589Z,83.80
2022-09-01T00:24:26.245Z,83.80
2022-09-01T00:26:53.742Z,83.80
2022-09-01T00:29:21.862Z,83.80
2022-09-01T00:31:49.164Z,83.70
2022-09-01T00:34:16.251Z,83.80
2022-09-01T00:36:44.396Z,83.80
2022-09-01T00:39:11.387Z,83.90
2022-09-01T00:41:39.947Z,83.90
2022-09-01T00:44:11.873Z,83.80
2022-09-01T00:46:49.481Z,83.80
2022-09-01T00:49:34.947Z,83.90
2022-09-01T00:52:33.878Z,83.90
2022-09-01T00:55:17.700Z,83.30
2022-09-01T00:57:45.995Z,83.30
2022-09-01T01:00:18.739Z,82.80
2022-09-01T01:02:46.090Z,82.80
2022-09-01T01:05:15.363Z,82.90
2022-09-01T01:07:47.557Z,82.70
2022-09-01T01:10:17.030Z,82.80
2022-09-01T01:12:44.836Z,83.00
2022-09-01T01:15:13.075Z,83.30
2022-09-01T01:17:40.485Z,83.30
2022-09-01T01:20:27.796Z,83.20
2022-09-01T01:23:05.387Z,83.10
2022-09-01T01:25:42.353Z,82.90
2022-09-01T01:28:15.715Z,83.20
2022-09-01T01:30:44.554Z,83.20
2022-09-01T01:33:11.830Z,82.90
2022-09-01T01:35:39.940Z,82.90
2022-09-01T01:38:07.884Z,83.10
2022-09-01T01:40:36.060Z,83.30
2022-09-01T01:43:03.637Z,83.50
2022-09-01T01:45:30.556Z,83.40
2022-09-01T01:47:58.196Z,83.50
2022-09-01T01:50:35.493Z,83.40
2022-09-01T01:53:11.054Z,83.30
2022-09-01T01:55:41.670Z,83.40
2022-09-01T01:58:12.107Z,83.40
2022-09-01T02:00:39.222Z,83.40
2022-09-01T02:03:07.469Z,83.70
2022-09-01T02:05:36.769Z,84.00
2022-09-01T02:08:07.313Z,84.00
2022-09-01T02:10:45.726Z,84.00
2022-09-01T02:13:18.137Z,84.10
2022-09-01T02:15:48.366Z,84.10
2022-09-01T02:18:22.224Z,84.00
2022-09-01T02:20:50.245Z,84.00
2022-09-01T02:23:23.173Z,83.80
2022-09-01T02:26:14.691Z,83.80
2022-09-01T02:28:43.809Z,84.00
2022-09-01T02:31:11.895Z,84.10
2022-09-01T02:33:40.578Z,84.10
2022-09-01T02:36:14.220Z,83.90
2022-09-01T02:38:45.895Z,83.70
2022-09-01T02:41:14.850Z,83.90
2022-09-01T02:43:45.917Z,83.90
2022-09-01T02:46:14.062Z,84.00
2022-09-01T02:48:45.819Z,84.00
2022-09-01T02:51:16.923Z,83.90
2022-09-01T02:53:45.946Z,83.80
2022-09-01T02:56:14.337Z,83.70
2022-09-01T02:58:46.424Z,83.90
2022-09-01T03:01:22.180Z,84.20
2022-09-01T03:03:51.186Z,83.90
2022-09-01T03:06:19.822Z,83.90
2022-09-01T03:08:47.731Z,83.70
2022-09-01T03:11:14.604Z,84.00
2022-09-01T03:13:42.387Z,84.20
2022-09-01T03:16:10.477Z,84.00
2022-09-01T03:18:38.268Z,84.00
2022-09-01T03:21:08.264Z,84.20
2022-09-01T03:23:35.327Z,84.40
2022-09-01T03:26:03.032Z,84.40
2022-09-01T03:28:30.057Z,84.70
2022-09-01T03:30:58.068Z,84.60
2022-09-01T03:33:26.629Z,84.30
2022-09-01T03:35:55.923Z,84.10
2022-09-01T03:38:24.632Z,84.50
2022-09-01T03:41:01.918Z,84.10
2022-09-01T03:43:36.185Z,84.40
2022-09-01T03:46:03.992Z,84.30
2022-09-01T03:48:32.208Z,84.20
2022-09-01T03:51:02.730Z,84.30
2022-09-01T03:53:35.917Z,84.00
2022-09-01T03:56:04.139Z,83.90
2022-09-01T03:58:32.371Z,83.70
2022-09-01T04:01:01.935Z,83.40
2022-09-01T04:03:32.142Z,83.20
2022-09-01T04:06:02.170Z,83.20
2022-09-01T04:08:32.799Z,82.70
2022-09-01T04:11:05.102Z,81.90
2022-09-01T04:13:39.696Z,82.50
2022-09-01T04:16:10.573Z,82.30
2022-09-01T04:18:39.961Z,81.70
2022-09-01T04:21:08.050Z,82.10
2022-09-01T04:23:37.041Z,81.80
2022-09-01T04:26:11.242Z,81.80
2022-09-01T04:28:40.636Z,82.20
2022-09-01T04:31:10.415Z,82.40
2022-09-01T04:33:39.749Z,82.40
2022-09-01T04:36:22.385Z,82.20
2022-09-01T04:38:56.420Z,82.40
2022-09-01T04:41:27.580Z,82.30
2022-09-01T04:43:57.737Z,81.90
2022-09-01T04:46:28.376Z,81.80
2022-09-01T04:48:57.408Z,81.80
2022-09-01T04:51:27.987Z,81.90
2022-09-01T04:53:57.619Z,81.90
2022-09-01T04:56:26.729Z,82.10
2022-09-01T04:59:13.387Z,82.00
2022-09-01T05:01:45.069Z,82.00
2022-09-01T05:04:20.314Z,81.70
2022-09-01T05:06:50.375Z,81.80
2022-09-01T05:09:20.160Z,81.60
2022-09-01T05:12:16.804Z,81.40
2022-09-01T05:14:48.477Z,81.70
2022-09-01T05:17:18.660Z,81.20
2022-09-01T05:19:48.599Z,80.90
2022-09-01T05:22:16.307Z,80.60
2022-09-01T05:24:51.496Z,80.70
2022-09-01T05:27:22.843Z,80.80
2022-09-01T05:29:50.361Z,80.60
2022-09-01T05:32:17.395Z,80.70
2022-09-01T05:34:46.044Z,80.60
2022-09-01T05:37:14.528Z,80.30
2022-09-01T05:39:41.485Z,80.40
2022-09-01T05:42:08.516Z,80.40
2022-09-01T05:44:43.949Z,80.50
2022-09-01T05:47:14.776Z,80.20
2022-09-01T05:49:50.182Z,80.30
2022-09-01T05:52:17.005Z,80.40
2022-09-01T05:54:45.980Z,80.10
2022-09-01T05:57:33.340Z,80.20
2022-09-01T06:00:00.528Z,79.90
2022-09-01T06:02:27.870Z,79.70
2022-09-01T06:05:07.251Z,79.70
2022-09-01T06:07:38.036Z,80.10
2022-09-01T06:10:05.869Z,79.60
2022-09-01T06:12:33.992Z,79.80
2022-09-01T06:15:01.250Z,80.00
2022-09-01T06:17:28.898Z,79.80
2022-09-01T06:19:58.682Z,79.50
2022-09-01T06:22:28.178Z,79.30
2022-09-01T06:25:02.442Z,79.50
2022-09-01T06:27:38.616Z,79.60
2022-09-01T06:30:14.725Z,79.90
2022-09-01T06:32:45.012Z,79.90
2022-09-01T06:35:16.066Z,79.30
2022-09-01T06:37:43.938Z,79.30
2022-09-01T06:40:19.659Z,79.20
2022-09-01T06:42:48.759Z,78.50
2022-09-01T06:45:17.571Z,78.60
2022-09-01T06:47:47.245Z,79.00
2022-09-01T06:56:02.811Z,77.70
2022-09-01T06:58:31.116Z,77.30
2022-09-01T07:00:58.117Z,76.90
2022-09-01T07:03:26.421Z,76.30
2022-09-01T07:06:01.396Z,75.90
2022-09-01T07:14:24.992Z,74.90
2022-09-01T07:16:53.445Z,75.20
2022-09-01T07:19:54.641Z,74.90
2022-09-01T07:23:02.828Z,75.10
2022-09-01T07:25:12.947Z,75.50
2022-09-01T07:28:03.303Z,74.90
2022-09-01T07:30:31.953Z,74.00
2022-09-01T07:33:41.630Z,73.60
2022-09-01T07:39:48.170Z,73.30
2022-09-01T07:44:31.106Z,72.50
2022-09-01T07:47:20.225Z,72.30
2022-09-01T07:50:13.025Z,72.50
2022-09-01T07:52:42.719Z,72.00
2022-09-01T07:55:12.744Z,72.70
2022-09-01T07:57:42.559Z,73.20
2022-09-01T08:00:11.637Z,73.70
2022-09-01T08:02:44.324Z,74.30
2022-09-01T08:05:22.321Z,73.60
2022-09-01T08:07:52.685Z,74.00
2022-09-01T08:10:22.036Z,72.60
2022-09-01T08:12:57.530Z,72.60
2022-09-01T08:16:06.967Z,72.20
2022-09-01T08:18:14.467Z,72.50
2022-09-01T08:20:45.451Z,72.60
2022-09-01T08:23:39.508Z,72.50
2022-09-01T08:26:10.656Z,72.50
2022-09-01T08:28:37.620Z,72.10
2022-09-01T08:31:13.564Z,72.80
2022-09-01T08:33:41.797Z,72.10
2022-09-01T08:36:11.933Z,71.80
2022-09-01T08:38:39.656Z,72.10
2022-09-01T08:41:18.604Z,70.50
2022-09-01T08:44:04.774Z,70.00
2022-09-01T08:46:39.541Z,69.00
2022-09-01T08:49:26.146Z,68.20
2022-09-01T08:52:29.452Z,67.90
2022-09-01T08:55:25.817Z,68.80
2022-09-01T08:57:59.125Z,68.60
2022-09-01T09:00:30.177Z,67.40
2022-09-01T09:03:22.616Z,67.00
2022-09-01T09:06:12.848Z,66.30
2022-09-01T09:08:51.636Z,67.20
2022-09-01T09:11:33.190Z,65.40
2022-09-01T09:13:59.848Z,65.60
2022-09-01T09:16:35.673Z,64.40
2022-09-01T09:19:10.992Z,64.50
2022-09-01T09:21:43.373Z,64.30
2022-09-01T09:24:22.660Z,63.30
2022-09-01T09:26:53.793Z,64.80
2022-09-01T09:29:22.248Z,64.20
2022-09-01T09:32:03.035Z,63.00
2022-09-01T09:34:35.600Z,63.00
2022-09-01T09:37:23.117Z,61.80
2022-09-01T09:40:08.552Z,61.60
2022-09-01T09:43:01.682Z,61.80
2022-09-01T09:45:35.735Z,61.30
2022-09-01T09:48:27.024Z,61.70
2022-09-01T09:50:53.747Z,61.60
2022-09-01T09:53:26.394Z,61.20
2022-09-01T09:56:22.734Z,62.80
2022-09-01T09:58:50.536Z,62.70
2022-09-01T10:01:25.819Z,62.60
2022-09-01T10:03:58.992Z,63.10
2022-09-01T10:06:46.991Z,63.00
2022-09-01T10:09:35.378Z,63.00
2022-09-01T10:12:03.147Z,62.20
2022-09-01T10:14:51.945Z,63.20
2022-09-01T10:17:40.498Z,64.10
2022-09-01T10:20:11.832Z,61.00
2022-09-01T10:22:40.105Z,59.70
2022-09-01T10:25:13.248Z,60.00
2022-09-01T10:27:44.272Z,60.40
2022-09-01T10:30:20.527Z,60.80
2022-09-01T10:33:07.432Z,58.70
2022-09-01T10:35:45.228Z,60.80
2022-09-01T10:38:25.225Z,60.10
2022-09-01T10:41:14.264Z,59.90
2022-09-01T10:43:51.596Z,60.90
2022-09-01T10:46:38.832Z,59.20
2022-09-01T10:49:28.075Z,60.90
2022-09-01T10:52:03.307Z,60.40
2022-09-01T10:54:40.361Z,60.20
2022-09-01T10:57:42.386Z,60.00
2022-09-01T11:00:40.001Z,59.50
2022-09-01T11:06:17.211Z,59.80
2022-09-01T11:09:00.065Z,60.00
2022-09-01T11:11:37.578Z,60.40
2022-09-01T11:14:17.940Z,60.30
2022-09-01T11:17:12.748Z,60.40
2022-09-01T11:19:47.300Z,61.80
2022-09-01T11:22:13.950Z,60.10
2022-09-01T11:24:44.710Z,60.00
2022-09-01T11:27:33.066Z,59.70
2022-09-01T11:30:07.069Z,58.90
2022-09-01T11:32:37.090Z,59.50
2022-09-01T11:35:07.046Z,58.20
2022-09-01T11:37:34.274Z,58.40
2022-09-01T11:40:08.512Z,58.80
2022-09-01T11:42:45.874Z,57.60
2022-09-01T11:45:21.762Z,58.70
2022-09-01T11:47:57.173Z,57.80
2022-09-01T11:50:28.579Z,57.00
2022-09-01T11:53:07.906Z,57.80
2022-09-01T11:55:36.580Z,56.90
2022-09-01T11:58:04.637Z,55.80
2022-09-01T12:00:36.698Z,56.50
2022-09-01T12:03:03.996Z,55.80
2022-09-01T12:05:34.328Z,57.30
2022-09-01T12:08:11.985Z,55.80
2022-09-01T12:10:40.319Z,56.00
2022-09-01T12:13:20.661Z,56.30
2022-09-01T12:16:18.238Z,57.20
2022-09-01T12:18:53.749Z,57.20
2022-09-01T12:21:27.882Z,56.60
2022-09-01T12:24:09.651Z,55.90
2022-09-01T12:26:36.484Z,56.00
2022-09-01T12:29:05.116Z,56.00
2022-09-01T12:31:32.009Z,55.60
2022-09-01T12:33:58.862Z,55.50
2022-09-01T12:36:37.335Z,55.50
2022-09-01T12:39:24.152Z,56.00
2022-09-01T12:42:09.604Z,57.50
2022-09-01T12:44:39.616Z,58.60
2022-09-01T12:47:13.449Z,58.20
2022-09-01T12:49:48.011Z,59.10
2022-09-01T12:52:20.000Z,59.50
2022-09-01T12:54:50.260Z,59.00
2022-09-01T12:57:34.021Z,56.80
2022-09-01T13:00:09.778Z,57.30
2022-09-01T13:02:46.220Z,56.70
2022-09-01T13:05:33.581Z,56.00
2022-09-01T13:08:06.005Z,56.60
2022-09-01T13:10:38.077Z,56.50
2022-09-01T13:13:06.568Z,55.80
2022-09-01T13:15:34.760Z,54.40
2022-09-01T13:18:01.564Z,54.20
2022-09-01T13:20:28.340Z,54.40
2022-09-01T13:22:55.326Z,54.70
2022-09-01T13:25:23.135Z,54.60
2022-09-01T13:27:52.877Z,54.80
2022-09-01T13:30:23.150Z,51.70
2022-09-01T13:35:37.501Z,53.40
2022-09-01T13:38:04.398Z,53.60
2022-09-01T13:40:31.334Z,55.60
2022-09-01T13:42:58.814Z,54.20
2022-09-01T13:45:25.777Z,53.20
2022-09-01T13:53:27.430Z,51.80
2022-09-01T13:55:54.174Z,52.60
2022-09-01T13:58:21.157Z,53.00
2022-09-01T14:00:48.236Z,53.00
2022-09-01T14:03:18.480Z,53.10
2022-09-01T14:05:47.802Z,51.10
2022-09-01T14:08:20.979Z,51.50
2022-09-01T14:10:50.929Z,50.40
2022-09-01T14:13:21.188Z,50.30
2022-09-01T14:15:49.243Z,49.70
2022-09-01T14:18:17.344Z,48.80
2022-09-01T14:20:47.250Z,49.30
2022-09-01T14:23:15.212Z,50.00
2022-09-01T14:25:45.550Z,50.30
2022-09-01T14:28:13.183Z,50.80
2022-09-01T14:30:45.387Z,50.90
2022-09-01T14:33:13.477Z,50.70
2022-09-01T14:35:43.389Z,49.30
2022-09-01T14:38:11.634Z,47.60
2022-09-01T14:40:40.204Z,48.10
2022-09-01T14:43:10.373Z,46.90
2022-09-01T14:45:37.756Z,47.10
2022-09-01T14:48:05.309Z,46.90
2022-09-01T14:50:33.773Z,46.10
2022-09-01T14:53:02.847Z,44.70
2022-09-01T14:55:30.900Z,44.90
2022-09-01T14:57:59.845Z,44.70
2022-09-01T15:00:27.526Z,44.90
2022-09-01T15:02:55.846Z,44.70
2022-09-01T15:05:23.661Z,46.40
2022-09-01T15:07:51.344Z,48.40
2022-09-01T15:10:25.916Z,48.00
2022-09-01T15:12:58.733Z,46.70
2022-09-01T15:15:27.796Z,44.80
2022-09-01T15:17:58.930Z,43.20
2022-09-01T15:20:45.115Z,42.30
2022-09-01T15:23:13.922Z,40.10
2022-09-01T15:25:40.903Z,39.80
2022-09-01T15:28:08.133Z,39.20
2022-09-01T15:30:36.313Z,40.70
2022-09-01T15:33:03.908Z,42.80
2022-09-01T15:35:31.232Z,45.20
2022-09-01T15:37:58.242Z,47.20
2022-09-01T15:40:25.901Z,48.00
2022-09-01T15:42:53.046Z,47.90
2022-09-01T15:45:25.657Z,44.10
2022-09-01T15:47:52.874Z,41.70
2022-09-01T15:50:23.041Z,40.50
2022-09-01T15:53:06.427Z,39.10
2022-09-01T15:55:48.739Z,37.10
2022-09-01T15:58:18.308Z,36.60
2022-09-01T16:00:51.563Z,36.40
2022-09-01T16:03:19.013Z,36.40
2022-09-01T16:05:45.777Z,36.30
2022-09-01T16:08:12.935Z,35.30
2022-09-01T16:10:42.119Z,35.20
2022-09-01T16:13:10.742Z,35.10
2022-09-01T16:15:44.667Z,35.60
2022-09-01T16:18:19.693Z,35.40
2022-09-01T16:20:59.998Z,36.00
2022-09-01T16:23:41.757Z,35.30
2022-09-01T16:26:08.764Z,35.30
2022-09-01T16:28:37.856Z,34.80
2022-09-01T16:31:13.779Z,34.20
2022-09-01T16:33:49.798Z,35.60
2022-09-01T16:36:40.010Z,35.40
2022-09-01T16:39:24.201Z,36.20
2022-09-01T16:42:07.826Z,36.60
2022-09-01T16:44:40.844Z,37.60
2022-09-01T16:47:40.170Z,38.90
2022-09-01T16:50:23.267Z,39.20
2022-09-01T16:52:53.658Z,39.00
2022-09-01T16:55:29.357Z,38.90
2022-09-01T16:58:40.874Z,39.30
2022-09-01T17:01:23.089Z,40.10
2022-09-01T17:03:54.548Z,40.40
2022-09-01T17:06:35.248Z,40.50
2022-09-01T17:09:15.086Z,41.90
2022-09-01T17:11:49.223Z,42.40
2022-09-01T17:14:27.768Z,43.90
2022-09-01T17:17:08.683Z,44.90
2022-09-01T17:19:40.716Z,46.50
2022-09-01T17:22:12.489Z,47.10
2022-09-01T17:24:45.201Z,47.20
2022-09-01T17:27:26.431Z,47.20
2022-09-01T17:29:55.014Z,47.00
2022-09-01T17:32:48.180Z,46.70
2022-09-01T17:35:35.918Z,46.50
2022-09-01T17:38:18.395Z,47.20
2022-09-01T17:41:06.983Z,47.50
2022-09-01T17:43:51.881Z,47.60
2022-09-01T17:46:45.362Z,49.10
2022-09-01T17:49:38.346Z,51.10
2022-09-01T17:52:08.066Z,52.20
2022-09-01T17:54:57.724Z,52.80
2022-09-01T17:57:39.439Z,53.50
2022-09-01T18:00:23.619Z,53.90
2022-09-01T18:03:18.927Z,54.00
2022-09-01T18:05:57.017Z,54.20
2022-09-01T18:08:30.390Z,54.70
2022-09-01T18:11:01.257Z,55.30
2022-09-01T18:13:53.810Z,55.60
2022-09-01T18:16:28.210Z,55.80
2022-09-01T18:19:02.364Z,56.30
2022-09-01T18:21:34.686Z,57.00
2022-09-01T18:24:16.177Z,57.30
2022-09-01T18:26:48.273Z,57.70
2022-09-01T18:29:15.494Z,58.00
2022-09-01T18:32:11.173Z,57.90
2022-09-01T18:35:08.725Z,58.30
2022-09-01T18:38:03.326Z,58.80
2022-09-01T18:41:00.786Z,58.70
2022-09-01T18:43:43.835Z,59.20
2022-09-01T18:46:18.120Z,59.20
2022-09-01T18:49:04.518Z,58.60
2022-09-01T18:52:14.385Z,58.50
2022-09-01T18:54:58.755Z,58.80
2022-09-01T18:57:35.322Z,59.00
2022-09-01T19:00:18.700Z,59.10
2022-09-01T19:02:57.193Z,59.30
2022-09-01T19:05:41.373Z,59.60
2022-09-01T19:08:08.033Z,59.20
2022-09-01T19:10:43.875Z,59.30
2022-09-01T19:13:44.768Z,59.30
2022-09-01T19:16:18.363Z,59.40
2022-09-01T19:19:06.397Z,59.40
2022-09-01T19:21:33.159Z,59.30
2022-09-01T19:24:10.157Z,59.40
2022-09-01T19:26:50.251Z,59.90
2022-09-01T19:29:20.903Z,59.80
2022-09-01T19:31:51.625Z,60.10
2022-09-01T19:34:25.621Z,60.40
2022-09-01T19:36:56.029Z,60.40
2022-09-01T19:39:26.839Z,60.60
2022-09-01T19:42:27.263Z,60.80
2022-09-01T19:45:15.422Z,60.60
2022-09-01T19:47:45.625Z,61.00
2022-09-01T19:50:31.257Z,61.30
2022-09-01T19:53:08.280Z,61.70
2022-09-01T19:55:45.908Z,61.80
2022-09-01T19:58:35.197Z,61.90
2022-09-01T20:01:05.643Z,62.10
2022-09-01T20:03:57.077Z,62.10
2022-09-01T20:06:37.395Z,61.90
2022-09-01T20:09:22.723Z,61.90
2022-09-01T20:12:37.624Z,62.00
2022-09-01T20:15:08.229Z,62.30
2022-09-01T20:17:51.871Z,62.50
2022-09-01T20:20:44.909Z,62.20
2022-09-01T20:23:23.397Z,62.20
2022-09-01T20:25:59.027Z,62.50
2022-09-01T20:29:04.204Z,62.20
2022-09-01T20:31:37.745Z,62.50
2022-09-01T20:34:04.428Z,62.40
2022-09-01T20:36:41.241Z,62.50
2022-09-01T20:39:36.718Z,63.20
2022-09-01T20:42:19.693Z,63.00
2022-09-01T20:44:57.391Z,63.40
2022-09-01T20:47:32.079Z,63.20
2022-09-01T20:50:08.806Z,63.50
2022-09-01T20:52:38.569Z,63.80
2022-09-01T20:55:15.960Z,64.10
2022-09-01T20:58:23.186Z,64.40
2022-09-01T21:01:24.955Z,64.70
2022-09-01T21:04:10.992Z,64.80
2022-09-01T21:06:41.041Z,64.60
2022-09-01T21:09:24.737Z,64.70
2022-09-01T21:12:08.916Z,65.90
2022-09-01T21:15:04.354Z,65.50
2022-09-01T21:17:52.767Z,66.10
2022-09-01T21:20:35.249Z,65.90
2022-09-01T21:23:02.017Z,66.50
2022-09-01T21:25:33.314Z,66.60
2022-09-01T21:28:02.160Z,66.70
2022-09-01T21:30:34.000Z,66.80
2022-09-01T21:33:01.468Z,66.40
2022-09-01T21:35:28.508Z,65.80
2022-09-01T21:37:55.253Z,66.00
2022-09-01T21:40:24.171Z,65.90
2022-09-01T21:43:07.106Z,65.40
2022-09-01T21:45:36.781Z,65.60
2022-09-01T21:48:05.063Z,65.90
2022-09-01T21:50:31.999Z,65.80
2022-09-01T21:52:58.715Z,65.70
2022-09-01T21:55:25.558Z,66.00
2022-09-01T21:57:52.912Z,66.70
2022-09-01T22:00:24.143Z,67.20
2022-09-01T22:02:51.498Z,67.20
2022-09-01T22:05:18.403Z,66.90
2022-09-01T22:07:46.861Z,67.00
2022-09-01T22:10:17.332Z,66.20
2022-09-01T22:12:46.307Z,66.10
2022-09-01T22:15:16.035Z,65.90
2022-09-01T22:17:43.232Z,66.60
2022-09-01T22:20:11.733Z,66.70
2022-09-01T22:22:39.307Z,65.80
2022-09-01T22:25:12.837Z,65.80
2022-09-01T22:27:39.809Z,66.80
2022-09-01T22:30:07.978Z,67.80
2022-09-01T22:32:36.216Z,68.20
2022-09-01T22:35:08.384Z,67.80
2022-09-01T22:37:36.201Z,68.40
2022-09-01T22:40:04.814Z,68.00
2022-09-01T22:42:31.985Z,68.20
2022-09-01T22:44:58.693Z,67.90
2022-09-01T22:47:25.490Z,68.50
2022-09-01T22:49:54.349Z,68.00
2022-09-01T22:52:21.204Z,68.70
2022-09-01T22:54:50.310Z,68.40
2022-09-01T22:57:17.401Z,68.40
2022-09-01T22:59:44.166Z,68.10
2022-09-01T23:02:11.035Z,68.00
2022-09-01T23:04:39.161Z,68.20
2022-09-01T23:07:07.091Z,68.50
2022-09-01T23:09:34.703Z,68.20
2022-09-01T23:12:01.581Z,68.00
2022-09-01T23:14:28.716Z,68.50
2022-09-01T23:16:55.612Z,68.10
2022-09-01T23:19:23.131Z,68.40
2022-09-01T23:21:51.099Z,68.40
2022-09-01T23:24:18.402Z,69.10
2022-09-01T23:26:47.508Z,68.90
2022-09-01T23:29:14.353Z,68.90
2022-09-01T23:31:41.236Z,68.90
2022-09-01T23:34:08.916Z,68.80
2022-09-01T23:36:36.763Z,69.30
2022-09-01T23:39:04.929Z,69.90
2022-09-01T23:41:33.355Z,69.70
2022-09-01T23:44:03.305Z,69.80
2022-09-01T23:46:33.277Z,69.90
2022-09-01T23:49:00.816Z,69.60
2022-09-01T23:51:27.525Z,70.20
2022-09-01T23:53:54.722Z,71.10
2022-09-01T23:56:24.885Z,70.30
2022-09-01T23:58:52.506Z,70.50
